Latest Weather Observations for South Channel Island

IDV60801

Issued at 4:52 am EDT Tuesday 19 October 2021 (issued every 10 minutes, with the page automatically refreshed every 10 minutes)

About weather observations | Map of weather stations | Latest weather observations for VIC | Other Formats
Station Details ID: 086344 Name: SOUTH CHANNEL ISLAND Lat: -38.31 Lon: 144.80 Height: 9.0 m
Data from the previous 72 hours. | See also: Recent months at South Channel Island
Date/Time
EDT
Temp
°C
App
Temp
°C
Dew
Point
°C
Rel
Hum
%
Delta-T
°C
Wind Press
QNH
hPa
Press
MSL
hPa
Rain since
9am
mm
Dir  Spd
km/h
Gust
km/h
Spd
kts
Gust
kts
19/04:30am - - - - - S 28 33 15 18 - - -
19/04:00am - - - - - S 30 35 16 19 - - -
19/03:30am - - - - - SSW 28 32 15 17 - - -
19/03:00am - - - - - SSW 28 35 15 19 - - -
19/02:30am - - - - - SSW 33 44 18 24 - - -
19/02:00am - - - - - SSW 28 32 15 17 - - -
19/01:30am - - - - - SSW 28 33 15 18 - - -
19/01:00am - - - - - SW 30 35 16 19 - - -
19/12:30am - - - - - SW 30 37 16 20 - - -
19/12:00am - - - - - SSW 32 37 17 20 - - -
 
Date/Time
EDT
Temp
°C
App
Temp
°C
Dew
Point
°C
Rel
Hum
%
Delta-T
°C
Wind Press
QNH
hPa
Press
MSL
hPa
Rain since
9am
mm
Dir  Spd
km/h
Gust
km/h
Spd
kts
Gust
kts
18/11:30pm - - - - - SW 26 30 14 16 - - -
18/11:00pm - - - - - SW 30 33 16 18 - - -
18/10:30pm - - - - - SW 32 35 17 19 - - -
18/10:00pm - - - - - SW 32 35 17 19 - - -
18/09:30pm - - - - - SW 32 37 17 20 - - -
18/09:00pm - - - - - SSW 33 41 18 22 - - -
18/08:30pm - - - - - SW 35 41 19 22 - - -
18/08:00pm - - - - - SW 37 46 20 25 - - -
18/07:30pm - - - - - SW 28 33 15 18 - - -
18/07:00pm - - - - - SW 22 28 12 15 - - -
18/06:30pm - - - - - SW 37 43 20 23 - - -
18/06:00pm - - - - - SW 39 44 21 24 - - -
18/05:30pm - - - - - SW 39 44 21 24 - - -
18/05:00pm - - - - - SW 37 46 20 25 - - -
18/04:30pm - - - - - SW 32 35 17 19 - - -
18/04:00pm - - - - - SSW 30 35 16 19 - - -
18/03:30pm - - - - - SSW 26 30 14 16 - - -
18/03:00pm - - - - - SSW 30 33 16 18 - - -
18/02:30pm - - - - - SSW 24 30 13 16 - - -
18/02:00pm - - - - - SSW 19 24 10 13 - - -
18/01:30pm - - - - - SW 15 17 8 9 - - -
18/01:00pm - - - - - WSW 20 22 11 12 - - -
18/12:30pm - - - - - W 19 20 10 11 - - -
18/12:00pm - - - - - W 13 17 7 9 - - -
18/11:30am - - - - - W 24 28 13 15 - - -
18/11:00am - - - - - W 24 28 13 15 - - -
18/10:30am - - - - - W 17 19 9 10 - - -
18/10:00am - - - - - W 15 17 8 9 - - -
18/09:30am - - - - - WNW 15 17 8 9 - - -
18/09:00am - - - - - WNW 15 17 8 9 - - -
18/08:30am - - - - - WNW 15 17 8 9 - - -
18/08:00am - - - - - W 9 11 5 6 - - -
18/07:30am - - - - - NW 13 13 7 7 - - -
18/07:00am - - - - - NNW 15 17 8 9 - - -
18/06:30am - - - - - NW 13 15 7 8 - - -
18/06:00am - - - - - NE 9 11 5 6 - - -
18/05:30am - - - - - NE 7 9 4 5 - - -
18/05:00am - - - - - ENE 11 13 6 7 - - -
18/04:30am - - - - - E 11 13 6 7 - - -
18/04:00am - - - - - E 13 15 7 8 - - -
18/03:30am - - - - - E 15 17 8 9 - - -
18/03:00am - - - - - ENE 19 22 10 12 - - -
18/02:30am - - - - - ENE 19 19 10 10 - - -
18/02:00am - - - - - NE 19 20 10 11 - - -
18/01:30am - - - - - NE 19 20 10 11 - - -
18/01:00am - - - - - NE 17 19 9 10 - - -
18/12:30am - - - - - NE 19 20 10 11 - - -
18/12:00am - - - - - NE 15 17 8 9 - - -
 
Date/Time
EDT
Temp
°C
App
Temp
°C
Dew
Point
°C
Rel
Hum
%
Delta-T
°C
Wind Press
QNH
hPa
Press
MSL
hPa
Rain since
9am
mm
Dir  Spd
km/h
Gust
km/h
Spd
kts
Gust
kts
17/11:30pm - - - - - NE 15 17 8 9 - - -
17/11:00pm - - - - - ENE 11 11 6 6 - - -
17/10:30pm - - - - - ESE 9 11 5 6 - - -
17/10:00pm - - - - - SE 9 11 5 6 - - -
17/09:30pm - - - - - ESE 9 11 5 6 - - -
17/09:00pm - - - - - ESE 9 11 5 6 - - -
17/08:30pm - - - - - SE 13 15 7 8 - - -
17/08:00pm - - - - - SSE 15 17 8 9 - - -
17/07:30pm - - - - - S 15 19 8 10 - - -
17/07:00pm - - - - - SSW 15 19 8 10 - - -
17/06:30pm - - - - - SW 19 20 10 11 - - -
17/06:00pm - - - - - SW 17 20 9 11 - - -
17/05:30pm - - - - - SW 20 24 11 13 - - -
17/05:00pm - - - - - WSW 19 24 10 13 - - -
17/04:30pm - - - - - SW 11 15 6 8 - - -
17/04:00pm - - - - - WSW 9 11 5 6 - - -
17/03:30pm - - - - - NNW 9 13 5 7 - - -
17/03:00pm - - - - - WNW 13 17 7 9 - - -
17/02:30pm - - - - - WNW 15 20 8 11 - - -
17/02:00pm - - - - - NW 24 28 13 15 - - -
17/01:30pm - - - - - NW 22 26 12 14 - - -
17/01:00pm - - - - - NW 24 28 13 15 - - -
17/12:30pm - - - - - WNW 20 26 11 14 - - -
17/12:00pm - - - - - WNW 20 28 11 15 - - -
17/11:30am - - - - - NW 22 28 12 15 - - -
17/11:00am - - - - - NW 26 30 14 16 - - -
17/10:30am - - - - - WNW 22 26 12 14 - - -
17/10:00am - - - - - WNW 24 28 13 15 - - -
17/09:30am - - - - - WNW 26 30 14 16 - - -
17/09:00am - - - - - WNW 28 30 15 16 - - -
17/08:30am - - - - - WNW 28 32 15 17 - - -
17/08:00am - - - - - WNW 28 32 15 17 - - -
17/07:30am - - - - - WNW 32 35 17 19 - - -
17/07:00am - - - - - WNW 30 33 16 18 - - -
17/06:30am - - - - - WNW 26 30 14 16 - - -
17/06:00am - - - - - WNW 26 28 14 15 - - -
17/05:30am - - - - - W 24 30 13 16 - - -
17/05:00am - - - - - W 19 24 10 13 - - -
17/04:30am - - - - - W 28 35 15 19 - - -
17/04:00am - - - - - W 26 30 14 16 - - -
17/03:30am - - - - - W 24 33 13 18 - - -
17/03:00am - - - - - W 20 30 11 16 - - -
17/02:30am - - - - - W 22 28 12 15 - - -
17/02:00am - - - - - W 24 30 13 16 - - -
17/01:30am - - - - - W 28 32 15 17 - - -
17/01:00am - - - - - SW 30 41 16 22 - - -
17/12:30am - - - - - SW 33 43 18 23 - - -
17/12:00am - - - - - WSW 30 35 16 19 - - -
 
Date/Time
EDT
Temp
°C
App
Temp
°C
Dew
Point
°C
Rel
Hum
%
Delta-T
°C
Wind Press
QNH
hPa
Press
MSL
hPa
Rain since
9am
mm
Dir  Spd
km/h
Gust
km/h
Spd
kts
Gust
kts
16/11:30pm - - - - - SW 28 35 15 19 - - -
16/11:00pm - - - - - SW 35 41 19 22 - - -
16/10:30pm - - - - - WSW 32 37 17 20 - - -
16/10:00pm - - - - - SW 35 43 19 23 - - -
16/09:30pm - - - - - SW 35 41 19 22 - - -
16/09:00pm - - - - - SW 37 46 20 25 - - -
16/08:30pm - - - - - SW 37 48 20 26 - - -
16/08:00pm - - - - - SW 37 43 20 23 - - -
16/07:30pm - - - - - SW 41 52 22 28 - - -
16/07:00pm - - - - - SW 43 52 23 28 - - -
16/06:30pm - - - - - SW 46 54 25 29 - - -
16/06:00pm - - - - - SSW 50 57 27 31 - - -
16/05:30pm - - - - - SSW 43 54 23 29 - - -
16/05:00pm - - - - - SW 48 56 26 30 - - -
16/04:30pm - - - - - SW 50 56 27 30 - - -
16/04:00pm - - - - - SW 48 56 26 30 - - -
16/03:30pm - - - - - SW 48 59 26 32 - - -
16/03:00pm - - - - - SW 48 54 26 29 - - -
16/02:30pm - - - - - SW 41 54 22 29 - - -
16/02:00pm - - - - - SW 44 54 24 29 - - -
16/01:30pm - - - - - SW 50 57 27 31 - - -
16/01:00pm - - - - - SW 46 56 25 30 - - -
16/12:30pm - - - - - SW 52 61 28 33 - - -
16/12:00pm - - - - - SW 48 57 26 31 - - -
16/11:30am - - - - - SW 50 57 27 31 - - -
16/11:00am - - - - - SW 54 67 29 36 - - -
16/10:30am - - - - - SW 52 61 28 33 - - -
16/10:00am - - - - - SW 54 63 29 34 - - -
16/09:30am - - - - - SW 57 70 31 38 - - -
16/09:00am - - - - - SW 57 69 31 37 - - -
16/08:30am - - - - - SW 57 69 31 37 - - -
16/08:00am - - - - - SW 57 69 31 37 - - -
16/07:32am - - - - - SW 52 70 28 38 - - -
16/07:30am - - - - - SW 50 61 27 33 - - -
16/07:00am - - - - - SW 56 69 30 37 - - -
16/06:51am - - - - - SW 50 69 27 37 - - -
16/06:30am - - - - - SW 56 70 30 38 - - -
16/06:05am - - - - - SW 57 78 31 42 - - -
16/06:00am - - - - - SW 57 67 31 36 - - -
16/05:30am - - - - - SW 56 72 30 39 - - -
16/05:13am - - - - - SW 54 74 29 40 - - -
16/05:00am - - - - - SW 59 69 32 37 - - -

Other formats

Comma delimited format used in spreadsheet applications
http://www.bom.gov.au/fwo/IDV60801/IDV60801.94853.axf

JavaScript Object Notation format (JSON) in row-major order
http://www.bom.gov.au/fwo/IDV60801/IDV60801.94853.json

Data quality

Most of these data are generated automatically and are frequently updated. Quality checks on data are not normally performed. It is possible for incorrect values to appear. Refer to information at About Latest Weather Observations and please check the disclaimer before using these data.